Time;durP1;ratioP1;P1;durP2;ratioP2;P2;SDS_P1;SDS_P2;PMS_P1;PMS_P2;Temp;Humidity;BMP_temperature;BMP_pressure;BME280_temperature;BME280_humidity;BME280_pressure;Samples;Min_cycle;Max_cycle;Signal;HPM_P1;HPM_P2
2021/12/23 00:01:32;;;;;;;89.50;36.20;;;;;;;;;;5033748;28;20033;-80
2021/12/23 00:03:58;;;;;;;74.93;31.50;;;;;;;;;;5022278;28;20452;-81
2021/12/23 00:06:25;;;;;;;71.00;30.95;;;;;;;;;;5040270;28;20025;-81
2021/12/23 00:08:51;;;;;;;82.97;30.63;;;;;;;;;;5006905;28;20057;-81
2021/12/23 00:11:17;;;;;;;82.80;31.77;;;;;;;;;;5015895;28;20033;-82
2021/12/23 00:14:00;;;;;;;71.72;32.63;;;;;;;;;;5034552;28;20404;-80
2021/12/23 00:16:42;;;;;;;76.35;31.42;;;;;;;;;;5015545;28;20460;-80
2021/12/23 00:19:23;;;;;;;78.78;32.85;;;;;;;;;;5027328;28;20029;-80
2021/12/23 00:24:35;;;;;;;85.57;31.55;;;;;;;;;;5038676;28;20052;-80
2021/12/23 00:27:02;;;;;;;83.57;33.30;;;;;;;;;;5037347;28;20031;-80
2021/12/23 00:29:28;;;;;;;95.70;34.40;;;;;;;;;;5037133;28;20029;-81
2021/12/23 00:31:55;;;;;;;79.82;31.70;;;;;;;;;;5038065;28;20022;-81
2021/12/23 00:34:21;;;;;;;78.13;29.27;;;;;;;;;;5039763;28;20081;-81
2021/12/23 00:36:48;;;;;;;89.22;30.05;;;;;;;;;;5021078;28;20033;-80
2021/12/23 00:39:16;;;;;;;86.05;30.80;;;;;;;;;;5033112;28;20025;-81
2021/12/23 00:41:44;;;;;;;77.82;27.77;;;;;;;;;;5004502;28;20034;-81
2021/12/23 00:44:11;;;;;;;86.80;30.95;;;;;;;;;;5002752;28;20037;-81
2021/12/23 00:46:37;;;;;;;73.38;29.80;;;;;;;;;;5031868;28;20479;-80
2021/12/23 00:49:05;;;;;;;73.70;29.60;;;;;;;;;;5031041;28;20081;-81
2021/12/23 00:51:31;;;;;;;75.60;28.05;;;;;;;;;;5030418;28;20037;-81
2021/12/23 00:54:04;;;;;;;83.05;30.65;;;;;;;;;;5032611;28;20065;-81
2021/12/23 00:56:35;;;;;;;73.90;27.85;;;;;;;;;;5031847;28;20397;-82
2021/12/23 00:59:01;;;;;;;80.90;29.10;;;;;;;;;;5007463;28;20037;-83
2021/12/23 01:01:27;;;;;;;68.70;25.92;;;;;;;;;;5031643;28;20033;-83
2021/12/23 01:03:54;;;;;;;70.93;27.58;;;;;;;;;;5015058;28;20541;-82
2021/12/23 01:06:20;;;;;;;60.58;25.95;;;;;;;;;;5031681;28;20025;-82
2021/12/23 01:08:47;;;;;;;70.07;25.27;;;;;;;;;;5032273;28;20030;-82
2021/12/23 01:11:13;;;;;;;65.75;27.70;;;;;;;;;;5032448;28;20059;-82
2021/12/23 01:13:47;;;;;;;63.70;24.90;;;;;;;;;;5036190;28;20456;-82
2021/12/23 01:16:25;;;;;;;59.40;23.20;;;;;;;;;;5046005;28;20036;-82
2021/12/23 01:18:54;;;;;;;63.90;24.70;;;;;;;;;;5007571;28;20071;-81
2021/12/23 01:21:20;;;;;;;62.13;22.38;;;;;;;;;;5032062;28;20036;-79
2021/12/23 01:23:53;;;;;;;54.78;21.30;;;;;;;;;;5035430;28;20037;-81
2021/12/23 01:26:22;;;;;;;58.83;21.38;;;;;;;;;;5049756;28;20055;-82
2021/12/23 01:28:49;;;;;;;63.60;23.50;;;;;;;;;;5032046;28;20530;-81
2021/12/23 01:31:16;;;;;;;58.72;21.30;;;;;;;;;;5032097;28;20116;-81
2021/12/23 01:33:42;;;;;;;56.67;22.55;;;;;;;;;;5032125;28;20468;-82
2021/12/23 01:36:09;;;;;;;69.18;23.83;;;;;;;;;;5031102;28;20026;-81
2021/12/23 01:38:35;;;;;;;63.97;21.27;;;;;;;;;;5030757;28;20068;-82
2021/12/23 01:41:02;;;;;;;54.22;20.98;;;;;;;;;;5031617;28;20037;-82
2021/12/23 01:43:28;;;;;;;66.15;22.17;;;;;;;;;;5014019;28;20040;-81
2021/12/23 01:45:54;;;;;;;68.85;22.25;;;;;;;;;;5031164;28;20112;-82
2021/12/23 01:48:21;;;;;;;59.13;22.15;;;;;;;;;;5031666;28;20037;-82
2021/12/23 01:50:48;;;;;;;61.53;19.77;;;;;;;;;;5028872;28;20026;-82
2021/12/23 01:53:14;;;;;;;68.32;20.70;;;;;;;;;;5013869;28;20503;-82
2021/12/23 01:55:42;;;;;;;54.65;21.75;;;;;;;;;;5012434;28;20115;-81
2021/12/23 01:58:09;;;;;;;57.90;20.42;;;;;;;;;;5031188;28;20064;-81
2021/12/23 02:00:37;;;;;;;57.60;24.38;;;;;;;;;;5031983;28;20036;-81
2021/12/23 02:03:04;;;;;;;67.75;25.75;;;;;;;;;;5019793;28;20053;-81
2021/12/23 02:05:30;;;;;;;71.40;27.83;;;;;;;;;;5022945;28;20041;-81
2021/12/23 02:07:58;;;;;;;67.60;24.98;;;;;;;;;;5004971;28;20057;-80
2021/12/23 02:10:24;;;;;;;60.40;26.55;;;;;;;;;;5034176;28;20380;-81
2021/12/23 02:12:51;;;;;;;63.05;27.20;;;;;;;;;;5027976;28;20053;-82
2021/12/23 02:15:18;;;;;;;79.63;30.50;;;;;;;;;;5012400;28;20469;-82
2021/12/23 02:17:45;;;;;;;66.25;29.58;;;;;;;;;;5026936;28;20069;-81
2021/12/23 02:20:15;;;;;;;77.25;28.17;;;;;;;;;;5029081;28;20042;-82
2021/12/23 02:22:42;;;;;;;73.90;28.65;;;;;;;;;;5028472;28;20041;-82
2021/12/23 02:25:10;;;;;;;80.30;30.45;;;;;;;;;;5014439;28;20112;-82
2021/12/23 02:27:36;;;;;;;74.03;30.58;;;;;;;;;;5041463;28;20099;-81
2021/12/23 02:30:06;;;;;;;69.55;29.65;;;;;;;;;;5042161;28;20029;-82
2021/12/23 02:32:34;;;;;;;72.53;30.27;;;;;;;;;;5032157;28;20029;-82
2021/12/23 02:35:01;;;;;;;74.25;29.95;;;;;;;;;;5025788;28;20036;-81
2021/12/23 02:37:27;;;;;;;83.53;32.45;;;;;;;;;;5023010;28;20104;-82
2021/12/23 02:39:54;;;;;;;91.35;31.90;;;;;;;;;;5025612;28;20029;-82
2021/12/23 02:42:20;;;;;;;76.43;33.40;;;;;;;;;;5007241;28;20038;-81
2021/12/23 02:44:46;;;;;;;76.68;32.53;;;;;;;;;;5028272;28;20034;-82
2021/12/23 02:47:13;;;;;;;80.97;34.22;;;;;;;;;;5026511;28;20554;-81
2021/12/23 02:49:39;;;;;;;77.43;33.92;;;;;;;;;;5026020;28;20463;-83
2021/12/23 02:52:06;;;;;;;78.03;31.35;;;;;;;;;;5024265;28;20026;-82
2021/12/23 02:54:32;;;;;;;76.05;30.17;;;;;;;;;;5027721;28;20100;-81
2021/12/23 02:57:00;;;;;;;74.55;30.23;;;;;;;;;;5025700;28;20112;-83
2021/12/23 02:59:26;;;;;;;86.78;33.63;;;;;;;;;;5005625;28;20025;-83
2021/12/23 03:01:52;;;;;;;74.00;30.77;;;;;;;;;;5031087;28;20125;-82
2021/12/23 03:04:19;;;;;;;75.10;28.85;;;;;;;;;;5023732;28;20495;-81
2021/12/23 03:06:45;;;;;;;77.47;29.08;;;;;;;;;;5028295;28;20021;-82
2021/12/23 03:09:11;;;;;;;63.28;28.17;;;;;;;;;;5023571;28;20030;-83
2021/12/23 03:11:40;;;;;;;56.92;26.63;;;;;;;;;;5027695;28;20049;-81
2021/12/23 03:14:07;;;;;;;66.50;26.63;;;;;;;;;;5024184;28;20021;-84
2021/12/23 03:16:35;;;;;;;67.28;24.05;;;;;;;;;;5025181;28;20056;-82
2021/12/23 03:19:01;;;;;;;71.25;25.15;;;;;;;;;;5024191;28;20573;-82
2021/12/23 03:21:28;;;;;;;73.03;25.95;;;;;;;;;;5029414;28;20029;-82
2021/12/23 03:23:54;;;;;;;61.80;24.05;;;;;;;;;;5005525;28;20921;-81
2021/12/23 03:26:24;;;;;;;70.75;23.45;;;;;;;;;;5023176;28;20037;-82
2021/12/23 03:28:50;;;;;;;59.30;24.17;;;;;;;;;;5005671;28;20053;-81
2021/12/23 03:31:17;;;;;;;62.30;25.50;;;;;;;;;;5022529;28;20056;-82
2021/12/23 03:33:43;;;;;;;62.85;25.88;;;;;;;;;;5022524;28;20037;-81
2021/12/23 03:36:10;;;;;;;62.53;25.45;;;;;;;;;;5028462;28;20021;-84
2021/12/23 03:38:36;;;;;;;65.45;26.73;;;;;;;;;;5027474;28;20029;-83
2021/12/23 03:41:03;;;;;;;63.22;28.02;;;;;;;;;;5022838;28;20481;-81
2021/12/23 03:43:30;;;;;;;58.35;25.52;;;;;;;;;;5021032;28;20077;-83
2021/12/23 03:45:57;;;;;;;63.28;27.58;;;;;;;;;;5024429;28;20037;-82
2021/12/23 03:48:24;;;;;;;58.00;26.65;;;;;;;;;;5000844;28;20040;-84
2021/12/23 03:50:50;;;;;;;57.33;25.30;;;;;;;;;;5025994;28;20423;-83
2021/12/23 03:53:17;;;;;;;56.47;23.90;;;;;;;;;;5023670;28;20031;-81
2021/12/23 03:55:43;;;;;;;51.90;22.98;;;;;;;;;;5006504;28;20034;-83
2021/12/23 03:58:10;;;;;;;64.40;23.40;;;;;;;;;;5025626;28;20052;-84
2021/12/23 04:00:36;;;;;;;55.90;22.50;;;;;;;;;;5026578;28;20025;-82
2021/12/23 04:03:03;;;;;;;58.15;22.08;;;;;;;;;;5020805;28;20033;-83
2021/12/23 04:05:29;;;;;;;63.20;24.00;;;;;;;;;;5006865;28;20033;-82
2021/12/23 04:07:55;;;;;;;75.55;27.27;;;;;;;;;;5026828;28;20030;-82
2021/12/23 04:10:22;;;;;;;75.35;32.10;;;;;;;;;;5026358;28;20149;-82
2021/12/23 04:12:52;;;;;;;83.30;33.30;;;;;;;;;;5019105;28;20033;-82
2021/12/23 04:15:19;;;;;;;81.75;36.25;;;;;;;;;;5022808;28;20029;-85
2021/12/23 04:17:46;;;;;;;87.68;35.08;;;;;;;;;;5025901;28;20095;-83
2021/12/23 04:20:19;;;;;;;88.32;36.20;;;;;;;;;;5007652;28;20287;-83
2021/12/23 04:22:46;;;;;;;85.03;36.38;;;;;;;;;;5008444;28;20037;-81
2021/12/23 04:25:13;;;;;;;92.75;36.95;;;;;;;;;;5023831;28;20034;-83
2021/12/23 04:27:40;;;;;;;93.93;39.60;;;;;;;;;;5028966;28;20063;-83
2021/12/23 04:30:07;;;;;;;95.97;39.78;;;;;;;;;;5027404;28;20057;-82
2021/12/23 04:32:34;;;;;;;95.82;39.78;;;;;;;;;;5008561;28;20029;-82
2021/12/23 04:35:00;;;;;;;96.38;39.22;;;;;;;;;;5021095;28;20029;-82
2021/12/23 04:37:27;;;;;;;105.10;42.03;;;;;;;;;;5007353;28;20032;-84
2021/12/23 04:39:53;;;;;;;113.70;45.28;;;;;;;;;;5025904;28;20025;-83
2021/12/23 04:42:19;;;;;;;119.88;47.53;;;;;;;;;;5007590;28;20043;-83
2021/12/23 04:44:46;;;;;;;120.60;51.47;;;;;;;;;;5024105;28;20037;-81
2021/12/23 04:47:12;;;;;;;125.72;56.47;;;;;;;;;;5026586;28;20029;-83
2021/12/23 04:49:38;;;;;;;120.13;55.78;;;;;;;;;;5020570;28;20034;-82
2021/12/23 04:52:05;;;;;;;120.43;57.13;;;;;;;;;;5015025;28;20030;-82
2021/12/23 04:54:31;;;;;;;130.35;59.03;;;;;;;;;;5009060;28;20036;-82
2021/12/23 04:56:58;;;;;;;136.82;61.90;;;;;;;;;;5030535;28;20081;-82
2021/12/23 04:59:24;;;;;;;133.70;63.90;;;;;;;;;;5016209;28;20030;-85
2021/12/23 05:01:51;;;;;;;147.32;69.13;;;;;;;;;;5034917;28;20074;-83
2021/12/23 05:04:18;;;;;;;145.88;70.07;;;;;;;;;;5026708;28;20045;-83
2021/12/23 05:06:44;;;;;;;156.63;69.35;;;;;;;;;;5008296;28;20066;-84
2021/12/23 05:09:11;;;;;;;148.88;65.63;;;;;;;;;;5007933;28;20056;-83
2021/12/23 05:11:37;;;;;;;130.48;62.15;;;;;;;;;;5023490;28;20037;-83
2021/12/23 05:14:03;;;;;;;136.48;61.35;;;;;;;;;;5020461;28;20092;-83
2021/12/23 05:16:30;;;;;;;144.48;62.95;;;;;;;;;;5022548;28;20085;-83
2021/12/23 05:18:56;;;;;;;136.20;63.55;;;;;;;;;;5005366;28;20026;-84
2021/12/23 05:21:22;;;;;;;146.32;67.88;;;;;;;;;;5032649;28;20025;-82
2021/12/23 05:23:49;;;;;;;131.70;70.05;;;;;;;;;;5010064;28;20033;-84
2021/12/23 05:26:15;;;;;;;143.68;71.55;;;;;;;;;;5021686;28;20028;-86
2021/12/23 05:28:41;;;;;;;138.73;69.03;;;;;;;;;;5023484;28;20033;-83
2021/12/23 05:31:08;;;;;;;136.80;60.35;;;;;;;;;;5006277;28;20068;-84
2021/12/23 05:33:34;;;;;;;113.05;46.47;;;;;;;;;;5022280;28;20482;-82
2021/12/23 05:36:01;;;;;;;103.60;46.22;;;;;;;;;;5024675;28;20029;-83
2021/12/23 05:38:27;;;;;;;102.68;47.22;;;;;;;;;;5007761;28;20058;-84
2021/12/23 05:40:53;;;;;;;104.85;43.63;;;;;;;;;;5005664;28;20040;-83
2021/12/23 05:43:20;;;;;;;97.03;41.22;;;;;;;;;;5021344;28;20091;-82
2021/12/23 05:45:46;;;;;;;86.25;41.63;;;;;;;;;;5025177;28;20504;-82
2021/12/23 05:48:13;;;;;;;94.80;39.50;;;;;;;;;;5006709;28;20548;-82
2021/12/23 05:50:39;;;;;;;94.75;39.83;;;;;;;;;;5012523;28;20112;-83
2021/12/23 05:53:06;;;;;;;91.47;38.63;;;;;;;;;;5025364;28;20017;-83
2021/12/23 05:55:32;;;;;;;91.63;36.83;;;;;;;;;;5027165;28;20160;-82
2021/12/23 05:57:58;;;;;;;85.50;33.65;;;;;;;;;;5024417;28;20022;-82
2021/12/23 06:00:27;;;;;;;84.65;34.78;;;;;;;;;;5027698;28;20028;-83
2021/12/23 06:02:54;;;;;;;99.60;34.80;;;;;;;;;;5007035;28;20045;-83
2021/12/23 06:05:20;;;;;;;90.47;31.08;;;;;;;;;;5010053;28;20507;-81
2021/12/23 06:07:47;;;;;;;71.32;26.25;;;;;;;;;;5025657;28;20057;-83
2021/12/23 06:10:17;;;;;;;88.57;29.45;;;;;;;;;;5023237;28;20030;-83
2021/12/23 06:12:46;;;;;;;82.80;27.08;;;;;;;;;;5013585;28;20026;-82
2021/12/23 06:15:13;;;;;;;82.13;27.98;;;;;;;;;;5015832;28;20029;-85
2021/12/23 06:17:41;;;;;;;76.75;28.67;;;;;;;;;;5030029;28;20557;-84
2021/12/23 06:20:08;;;;;;;81.18;28.77;;;;;;;;;;5031281;28;20489;-83
2021/12/23 06:22:37;;;;;;;82.88;26.40;;;;;;;;;;5020902;28;20577;-82
2021/12/23 06:25:07;;;;;;;71.47;27.00;;;;;;;;;;5007887;28;20026;-84
2021/12/23 06:27:33;;;;;;;95.97;26.85;;;;;;;;;;5025014;28;20033;-82
2021/12/23 06:30:00;;;;;;;80.15;27.90;;;;;;;;;;5028927;28;20034;-83
2021/12/23 06:32:26;;;;;;;85.40;30.52;;;;;;;;;;5026429;28;20038;-83
2021/12/23 06:34:52;;;;;;;87.85;31.25;;;;;;;;;;5007686;28;20080;-84
2021/12/23 06:37:19;;;;;;;83.45;31.52;;;;;;;;;;5012301;28;20028;-83
2021/12/23 06:39:46;;;;;;;82.18;32.15;;;;;;;;;;5023968;28;20017;-83
2021/12/23 06:42:13;;;;;;;84.03;32.30;;;;;;;;;;5010792;28;20032;-84
2021/12/23 06:44:40;;;;;;;78.40;28.38;;;;;;;;;;5026874;28;20018;-84
2021/12/23 06:47:06;;;;;;;66.50;28.35;;;;;;;;;;5025430;28;20030;-82
2021/12/23 06:49:33;;;;;;;78.82;29.50;;;;;;;;;;5033165;28;20052;-83
2021/12/23 06:52:00;;;;;;;74.90;26.65;;;;;;;;;;5027317;28;20018;-83
2021/12/23 06:54:27;;;;;;;73.70;26.92;;;;;;;;;;5012887;28;20499;-82
2021/12/23 06:56:53;;;;;;;73.72;24.15;;;;;;;;;;5011616;28;20028;-83
2021/12/23 06:59:19;;;;;;;57.00;21.00;;;;;;;;;;5030578;28;20044;-84
2021/12/23 07:01:47;;;;;;;63.42;22.00;;;;;;;;;;5009018;28;20030;-84
2021/12/23 07:04:16;;;;;;;68.70;22.10;;;;;;;;;;5028540;28;20030;-82
2021/12/23 07:06:47;;;;;;;68.40;21.52;;;;;;;;;;5027503;28;20033;-84
2021/12/23 07:09:15;;;;;;;61.25;22.75;;;;;;;;;;5029130;28;20066;-84
2021/12/23 07:11:43;;;;;;;68.38;21.30;;;;;;;;;;5027346;28;20029;-83
2021/12/23 07:14:09;;;;;;;63.47;23.23;;;;;;;;;;5028262;28;20045;-82
2021/12/23 07:16:38;;;;;;;70.80;23.33;;;;;;;;;;5029281;28;20072;-83
2021/12/23 07:19:04;;;;;;;63.25;22.23;;;;;;;;;;5007561;28;20468;-84
2021/12/23 07:21:31;;;;;;;66.88;23.45;;;;;;;;;;5019004;28;20178;-83
2021/12/23 07:23:57;;;;;;;72.72;23.13;;;;;;;;;;5007066;28;20040;-84
2021/12/23 07:26:23;;;;;;;64.53;23.13;;;;;;;;;;5023977;28;20049;-83
2021/12/23 07:28:51;;;;;;;70.57;23.83;;;;;;;;;;5031539;28;20034;-84
2021/12/23 07:31:17;;;;;;;61.72;23.33;;;;;;;;;;5029323;28;20041;-84
2021/12/23 07:33:43;;;;;;;82.70;24.65;;;;;;;;;;5020510;28;20021;-82
2021/12/23 07:36:10;;;;;;;64.13;24.55;;;;;;;;;;5027759;28;20029;-85
2021/12/23 07:38:36;;;;;;;61.70;23.55;;;;;;;;;;5031398;28;20022;-84
2021/12/23 07:41:03;;;;;;;68.38;23.23;;;;;;;;;;5011157;28;20041;-85
2021/12/23 07:46:01;;;;;;;67.00;21.77;;;;;;;;;;5025004;28;20033;-84
2021/12/23 07:48:27;;;;;;;68.18;21.13;;;;;;;;;;5023267;28;20032;-85
2021/12/23 07:50:54;;;;;;;68.88;21.08;;;;;;;;;;5006503;28;20520;-84
2021/12/23 07:53:21;;;;;;;67.10;22.17;;;;;;;;;;5020519;28;20037;-83
2021/12/23 07:55:47;;;;;;;58.42;18.73;;;;;;;;;;5021619;28;20048;-83
2021/12/23 07:58:14;;;;;;;63.45;20.55;;;;;;;;;;5022523;28;20029;-82
2021/12/23 08:00:40;;;;;;;60.28;21.48;;;;;;;;;;5006514;28;20029;-84
2021/12/23 08:03:07;;;;;;;72.63;20.67;;;;;;;;;;5006775;28;20656;-84
2021/12/23 08:05:34;;;;;;;54.38;19.27;;;;;;;;;;5023022;28;20017;-82
2021/12/23 08:08:01;;;;;;;62.15;18.80;;;;;;;;;;5011194;28;20026;-83
2021/12/23 08:10:27;;;;;;;65.63;21.05;;;;;;;;;;5004613;28;20083;-82
2021/12/23 08:12:54;;;;;;;57.40;22.77;;;;;;;;;;5023580;28;20017;-83
2021/12/23 08:15:20;;;;;;;75.22;28.27;;;;;;;;;;5003362;28;20025;-82
2021/12/23 08:17:47;;;;;;;71.38;25.45;;;;;;;;;;5024436;28;20128;-83
2021/12/23 08:20:14;;;;;;;74.15;27.15;;;;;;;;;;5025880;28;20536;-84
2021/12/23 08:22:41;;;;;;;72.45;28.42;;;;;;;;;;5021469;28;20515;-83
2021/12/23 08:25:08;;;;;;;83.10;30.77;;;;;;;;;;5026337;28;20029;-82
2021/12/23 08:27:35;;;;;;;78.82;30.88;;;;;;;;;;5023383;28;20041;-84
2021/12/23 08:30:04;;;;;;;78.68;29.15;;;;;;;;;;5028710;28;20024;-83
2021/12/23 08:32:30;;;;;;;72.80;25.88;;;;;;;;;;5010843;28;20021;-82
2021/12/23 08:34:56;;;;;;;72.65;25.77;;;;;;;;;;5024576;28;20033;-82
2021/12/23 08:37:24;;;;;;;76.72;26.95;;;;;;;;;;5019860;28;20056;-82
2021/12/23 08:39:51;;;;;;;77.38;27.10;;;;;;;;;;5025008;28;20523;-84
2021/12/23 08:42:18;;;;;;;71.43;26.13;;;;;;;;;;5026140;28;20225;-84
2021/12/23 08:44:44;;;;;;;74.30;25.63;;;;;;;;;;5034581;28;20022;-83
2021/12/23 08:47:13;;;;;;;69.40;22.90;;;;;;;;;;5033724;28;20034;-82
2021/12/23 08:49:41;;;;;;;68.72;22.27;;;;;;;;;;5036952;28;20058;-82
2021/12/23 08:52:07;;;;;;;68.38;23.02;;;;;;;;;;5032748;28;20025;-83
2021/12/23 08:54:34;;;;;;;60.58;19.95;;;;;;;;;;5031108;28;20025;-82
2021/12/23 08:57:00;;;;;;;63.05;21.15;;;;;;;;;;5019766;28;20026;-82
2021/12/23 08:59:26;;;;;;;65.30;21.00;;;;;;;;;;5017914;28;20041;-82
2021/12/23 09:01:54;;;;;;;59.35;18.35;;;;;;;;;;5002493;28;20033;-82
2021/12/23 09:04:21;;;;;;;59.92;18.92;;;;;;;;;;5020090;28;20021;-82
2021/12/23 09:06:47;;;;;;;59.00;20.42;;;;;;;;;;5024243;28;20043;-84
2021/12/23 09:09:14;;;;;;;60.88;20.17;;;;;;;;;;4999871;28;20026;-84
2021/12/23 09:11:40;;;;;;;68.05;23.70;;;;;;;;;;5013944;28;20037;-84
2021/12/23 09:14:08;;;;;;;65.05;23.27;;;;;;;;;;5015406;28;20370;-81
2021/12/23 09:16:34;;;;;;;65.43;22.98;;;;;;;;;;5019612;28;20053;-84
2021/12/23 09:19:01;;;;;;;78.47;24.80;;;;;;;;;;5027271;28;20468;-82
2021/12/23 09:21:27;;;;;;;61.45;24.75;;;;;;;;;;5024710;28;20021;-83
2021/12/23 09:23:54;;;;;;;72.68;25.10;;;;;;;;;;5024533;28;20624;-83
2021/12/23 09:26:21;;;;;;;65.78;24.77;;;;;;;;;;5026866;28;20548;-84
2021/12/23 09:29:02;;;;;;;70.22;26.13;;;;;;;;;;5022665;28;20388;-84
2021/12/23 09:34:13;;;;;;;78.45;28.05;;;;;;;;;;5031333;28;20088;-82
2021/12/23 09:36:40;;;;;;;86.97;29.27;;;;;;;;;;5029831;28;20492;-85
2021/12/23 09:39:08;;;;;;;88.18;30.00;;;;;;;;;;5026684;28;20140;-84
2021/12/23 09:41:35;;;;;;;82.45;28.65;;;;;;;;;;5011149;28;20564;-84
2021/12/23 09:44:05;;;;;;;76.68;31.10;;;;;;;;;;5032941;28;20036;-83
2021/12/23 09:46:31;;;;;;;81.75;30.00;;;;;;;;;;5013537;28;20656;-83
2021/12/23 09:48:59;;;;;;;79.85;28.83;;;;;;;;;;5007175;28;20104;-84
2021/12/23 09:51:28;;;;;;;78.07;30.15;;;;;;;;;;5025245;28;20029;-82
2021/12/23 09:53:59;;;;;;;90.68;30.35;;;;;;;;;;5029561;28;20022;-83
2021/12/23 09:56:30;;;;;;;80.35;29.25;;;;;;;;;;5035649;28;20041;-82
2021/12/23 09:58:58;;;;;;;77.57;25.65;;;;;;;;;;5016478;28;20030;-84
2021/12/23 10:01:25;;;;;;;80.13;26.30;;;;;;;;;;5009814;28;20539;-84
2021/12/23 10:03:52;;;;;;;83.75;26.35;;;;;;;;;;5026117;28;20140;-84
2021/12/23 10:06:19;;;;;;;72.03;27.27;;;;;;;;;;5023906;28;20034;-83
2021/12/23 10:08:45;;;;;;;75.68;26.25;;;;;;;;;;5024386;28;20033;-83
2021/12/23 10:11:25;;;;;;;85.38;27.65;;;;;;;;;;5023579;28;20192;-83
2021/12/23 10:29:07;;;;;;;81.35;31.52;;;;;;;;;;5025428;28;20044;-82
2021/12/23 10:30:39;;;;;;;87.53;33.83;;;;;;;;;;5029157;28;20057;-84
2021/12/23 10:33:27;;;;;;;86.43;30.33;;;;;;;;;;5026330;28;20200;-83
2021/12/23 10:38:42;;;;;;;76.05;27.70;;;;;;;;;;5028354;28;20030;-84
2021/12/23 10:41:13;;;;;;;72.97;24.02;;;;;;;;;;5031007;28;20045;-84
2021/12/23 10:43:59;;;;;;;74.85;25.05;;;;;;;;;;5008346;28;20394;-86
2021/12/23 10:46:32;;;;;;;71.45;23.33;;;;;;;;;;5013540;28;20026;-83
2021/12/23 10:52:08;;;;;;;78.60;23.55;;;;;;;;;;5004043;28;20341;-83
2021/12/23 11:00:19;;;;;;;76.10;25.67;;;;;;;;;;5026019;28;20083;-82
2021/12/23 11:03:01;;;;;;;66.70;24.88;;;;;;;;;;5010195;28;20045;-81
2021/12/23 11:05:33;;;;;;;75.78;27.88;;;;;;;;;;5021553;28;20315;-83
2021/12/23 11:11:02;;;;;;;68.28;27.33;;;;;;;;;;5029091;28;20044;-85
2021/12/23 11:27:34;;;;;;;94.00;35.35;;;;;;;;;;5018290;28;20056;-82
2021/12/23 11:38:11;;;;;;;85.07;36.70;;;;;;;;;;5018410;28;20032;-83
2021/12/23 11:45:33;;;;;;;106.88;40.75;;;;;;;;;;5018558;28;20041;-82
2021/12/23 11:48:04;;;;;;;97.25;41.88;;;;;;;;;;5019046;28;20040;-83
2021/12/23 11:50:41;;;;;;;86.63;40.97;;;;;;;;;;5004747;28;20083;-84
2021/12/23 11:53:08;;;;;;;92.70;41.97;;;;;;;;;;5023471;28;20055;-83
2021/12/23 11:55:36;;;;;;;96.68;38.90;;;;;;;;;;5023154;28;20132;-84
2021/12/23 11:58:02;;;;;;;93.68;37.88;;;;;;;;;;5022809;28;20048;-82
2021/12/23 12:00:41;;;;;;;88.05;40.42;;;;;;;;;;5002426;28;20028;-83
2021/12/23 12:03:08;;;;;;;100.47;42.92;;;;;;;;;;5020019;28;20986;-84
2021/12/23 12:05:35;;;;;;;84.88;40.05;;;;;;;;;;5024938;28;20025;-84
2021/12/23 12:08:24;;;;;;;95.85;41.38;;;;;;;;;;5001341;28;20078;-82
2021/12/23 12:10:51;;;;;;;86.43;40.65;;;;;;;;;;5004064;28;20033;-84
2021/12/23 12:13:17;;;;;;;102.78;42.95;;;;;;;;;;5026685;28;20089;-84
2021/12/23 12:15:48;;;;;;;86.25;41.90;;;;;;;;;;5019547;28;20049;-85
2021/12/23 12:18:18;;;;;;;99.38;42.38;;;;;;;;;;4980520;28;20046;-83
2021/12/23 12:20:48;;;;;;;109.88;45.08;;;;;;;;;;5008238;28;20088;-82
2021/12/23 12:23:15;;;;;;;107.50;44.65;;;;;;;;;;5008429;28;20026;-83
2021/12/23 12:25:41;;;;;;;99.35;45.15;;;;;;;;;;4990606;28;20524;-83
2021/12/23 12:28:07;;;;;;;97.85;46.25;;;;;;;;;;4986572;28;20433;-84
2021/12/23 12:30:38;;;;;;;94.75;48.38;;;;;;;;;;5006925;28;20030;-83
2021/12/23 12:33:06;;;;;;;107.95;51.42;;;;;;;;;;4984828;28;20031;-85
2021/12/23 12:35:32;;;;;;;99.95;52.33;;;;;;;;;;5005379;28;20022;-83
2021/12/23 12:38:19;;;;;;;103.50;49.85;;;;;;;;;;5004358;28;20018;-84
2021/12/23 12:40:54;;;;;;;87.63;48.70;;;;;;;;;;5005182;28;20070;-82
2021/12/23 12:43:41;;;;;;;104.95;52.78;;;;;;;;;;5000558;28;20037;-82
2021/12/23 12:46:09;;;;;;;106.68;49.97;;;;;;;;;;5007084;28;20037;-83
2021/12/23 12:48:53;;;;;;;115.18;49.60;;;;;;;;;;5002628;28;20026;-82
2021/12/23 12:51:21;;;;;;;100.82;48.08;;;;;;;;;;4984810;28;20148;-82
2021/12/23 12:53:55;;;;;;;108.57;50.60;;;;;;;;;;5001766;28;20030;-83
2021/12/23 12:56:32;;;;;;;102.57;50.50;;;;;;;;;;4991278;28;20034;-84
2021/12/23 12:58:59;;;;;;;98.68;50.05;;;;;;;;;;5007154;28;20684;-84
2021/12/23 13:01:33;;;;;;;108.38;56.08;;;;;;;;;;4992822;28;20044;-83
2021/12/23 13:04:01;;;;;;;102.20;55.85;;;;;;;;;;5002183;28;20038;-83
2021/12/23 13:06:36;;;;;;;101.85;51.35;;;;;;;;;;4987943;28;20025;-83
2021/12/23 13:09:06;;;;;;;94.97;45.10;;;;;;;;;;4984910;28;20034;-84
2021/12/23 13:11:33;;;;;;;100.57;47.22;;;;;;;;;;5007571;28;20034;-83
2021/12/23 13:14:00;;;;;;;98.05;46.92;;;;;;;;;;5003855;28;20072;-84
2021/12/23 13:16:27;;;;;;;87.72;44.05;;;;;;;;;;5007100;28;20038;-82
2021/12/23 13:19:13;;;;;;;89.28;42.78;;;;;;;;;;5029864;28;20057;-82
2021/12/23 13:21:43;;;;;;;80.63;40.42;;;;;;;;;;5024407;28;20034;-83
2021/12/23 13:24:13;;;;;;;77.53;39.63;;;;;;;;;;5009920;28;20116;-81
2021/12/23 13:26:39;;;;;;;65.15;36.47;;;;;;;;;;5022036;28;20117;-83
2021/12/23 13:29:08;;;;;;;66.43;34.42;;;;;;;;;;5022346;28;20033;-83
2021/12/23 13:31:36;;;;;;;71.43;33.42;;;;;;;;;;5030104;28;20053;-82
2021/12/23 13:34:04;;;;;;;73.32;37.67;;;;;;;;;;5026627;28;20020;-83
2021/12/23 13:36:33;;;;;;;77.68;37.10;;;;;;;;;;5030237;28;20084;-84
2021/12/23 13:39:01;;;;;;;81.00;37.30;;;;;;;;;;5024565;28;20080;-83
2021/12/23 13:41:28;;;;;;;62.10;32.00;;;;;;;;;;5024083;28;20022;-84
2021/12/23 13:43:56;;;;;;;67.18;31.95;;;;;;;;;;5023980;28;20479;-83
2021/12/23 13:46:24;;;;;;;61.95;30.23;;;;;;;;;;5025479;28;20029;-83
2021/12/23 13:48:56;;;;;;;58.83;28.65;;;;;;;;;;5008960;28;20025;-84
2021/12/23 13:51:24;;;;;;;60.25;28.98;;;;;;;;;;5004430;28;20037;-84
2021/12/23 13:54:01;;;;;;;56.25;30.27;;;;;;;;;;5023435;28;20353;-84
2021/12/23 13:56:33;;;;;;;61.33;29.70;;;;;;;;;;5023256;28;20026;-84
2021/12/23 13:59:09;;;;;;;48.83;27.90;;;;;;;;;;5024235;28;20484;-82
2021/12/23 14:01:51;;;;;;;66.97;28.23;;;;;;;;;;5024793;28;20060;-83
2021/12/23 14:04:30;;;;;;;67.28;29.40;;;;;;;;;;5029173;28;20235;-82
2021/12/23 14:06:57;;;;;;;56.92;27.95;;;;;;;;;;5030035;28;20064;-82
2021/12/23 14:09:42;;;;;;;93.28;44.28;;;;;;;;;;5021112;28;20034;-82
2021/12/23 14:12:11;;;;;;;139.18;70.43;;;;;;;;;;5026757;28;20025;-85
2021/12/23 14:14:50;;;;;;;130.13;71.22;;;;;;;;;;5023245;28;20068;-83
2021/12/23 14:17:23;;;;;;;145.35;75.70;;;;;;;;;;5012746;28;20104;-82
2021/12/23 14:23:11;;;;;;;168.15;87.28;;;;;;;;;;5030725;28;20539;-83
2021/12/23 14:25:31;;;;;;;160.55;83.47;;;;;;;;;;5041141;28;20072;-82
2021/12/23 14:27:58;;;;;;;159.15;82.75;;;;;;;;;;5038914;28;20372;-81
2021/12/23 14:30:37;;;;;;;170.57;81.82;;;;;;;;;;5039230;28;20317;-82
2021/12/23 14:33:23;;;;;;;160.10;77.72;;;;;;;;;;5038067;28;20018;-82
2021/12/23 14:35:54;;;;;;;157.10;75.78;;;;;;;;;;5038134;28;20117;-82
2021/12/23 14:38:24;;;;;;;143.50;74.70;;;;;;;;;;5042950;28;20017;-82
2021/12/23 14:41:17;;;;;;;144.77;69.15;;;;;;;;;;5028473;28;20116;-82
2021/12/23 14:43:53;;;;;;;132.65;67.03;;;;;;;;;;5028448;28;20033;-83
2021/12/23 14:46:21;;;;;;;151.85;71.88;;;;;;;;;;5015427;28;20053;-83
2021/12/23 14:51:37;;;;;;;128.02;53.67;;;;;;;;;;4987122;28;20030;-81
2021/12/23 14:54:17;;;;;;;133.15;61.20;;;;;;;;;;5026047;28;20557;-84
2021/12/23 14:56:52;;;;;;;121.22;56.72;;;;;;;;;;5033072;28;20091;-83
2021/12/23 14:59:19;;;;;;;104.57;45.92;;;;;;;;;;5025737;28;20025;-82
2021/12/23 15:01:47;;;;;;;98.25;42.55;;;;;;;;;;5031018;28;20029;-83
2021/12/23 15:04:14;;;;;;;105.95;41.65;;;;;;;;;;5033507;28;20105;-82
2021/12/23 15:06:59;;;;;;;81.07;36.80;;;;;;;;;;5025712;28;20496;-83
2021/12/23 15:09:28;;;;;;;93.35;36.13;;;;;;;;;;5029270;28;20049;-83
2021/12/23 15:11:55;;;;;;;99.28;35.83;;;;;;;;;;5024563;28;20058;-82
2021/12/23 15:14:23;;;;;;;82.68;34.80;;;;;;;;;;5028781;28;20029;-82
2021/12/23 15:17:02;;;;;;;91.32;34.55;;;;;;;;;;5024396;28;20035;-83
2021/12/23 15:19:38;;;;;;;94.22;35.60;;;;;;;;;;5027337;28;20029;-82
2021/12/23 15:22:24;;;;;;;88.65;34.85;;;;;;;;;;5028707;28;20115;-82
2021/12/23 15:25:02;;;;;;;80.70;35.00;;;;;;;;;;5033692;28;20029;-84
2021/12/23 15:27:31;;;;;;;81.88;33.05;;;;;;;;;;5034144;28;20029;-83
2021/12/23 15:30:01;;;;;;;79.07;32.72;;;;;;;;;;5033834;28;20040;-82
2021/12/23 15:32:31;;;;;;;84.68;32.65;;;;;;;;;;5012082;28;20072;-81